Airfield :
LOGIN :

Register | Disclaimer

   EN    FR    IT 

 










Legend :    VFR   Marginal VFR   IFR   Intensive IFR   Very Intensive IFR
Visi :
Ceiling :
>= 8 km
>= 3000ft
5 to 8 km
1000 to 3000 ft
1500m to 5 km
500 to 1000 ft
800 to 1500m
200 to 500 ft
< 800m
< 200 ft
Symbols :   Thunderstorms  Fog  Heavy snow  Heavy precipitations  Wind > 20 kt
SIGMETs :     Misc.  Thunderstorms  Icing  Turbulence  Mountain Waves  Volcanic Ashes







- Airport Elevation : 464 ft
- IATA code : EVX
- Download approach charts


LFOE - Evreux

CURRENT METAR :
  • 242100Z AUTO 31006KT CAVOK 04/M02 Q1029 NOSIG

EXPIRED METARs :
  • 242030Z AUTO 31005KT CAVOK 05/M02 Q1029 NOSIG
  • 242000Z AUTO 31005KT CAVOK 06/M03 Q1029 NOSIG
  • 241930Z AUTO 30005KT CAVOK 06/M02 Q1029 NOSIG
  • 241900Z AUTO 31006KT 270V330 CAVOK 07/M02 Q1029 NOSIG
  • 241830Z AUTO 31006KT CAVOK 08/M02 Q1029 NOSIG

TAF TAF LFOE
Valid from the 24 at 21:00 until the 25 at 21:00 UTC


242000Z 2421/2521 31006KT CAVOK
BECMG 2500/2503 4000 BR
PROB30
TEMPO 2503/2507 0800 BCFG VV///
BECMG 2507/2509 35010G20KT 9999 NSW BKN010
BECMG 2509/2511 NSC
No reported NOTAMs for that airfield.



MET'MAP, your aeronautical weather chart ! - Copyright ORBIFLY December 2007 - Disclaimer

ORBIFLY MET'MAP TEAM :

Programming & Development : Alexandra Zaïnal
Concept & Development : Baudouin d'Aumeries
Co-Development & Prog : Marc-Olivier Méhu
Technical & hardware support : Manuel Goepfert

Contact : metmap@orbifly.com




SOURCES & CREDITS :

   NOAA